VTPT

Details ICAO VTPT
Name Tak
Region Thailand
Timezone Asia/Bangkok (UTC+7.0)
Plans Departing 0
Arriving 0
Stats Elevation 478 ft / 146 m (AMSL)
Location 16.895988° 99.253351°
Runways 1
Magnetic Variation 0.687° W
Sunrise 2017-12-15 23:46:08 UTC / 2017-12-16 06:46:08 Local
Sunset 2017-12-16 10:53:37 UTC / 2017-12-16 17:53:37 Local
Advertisement - Login to hide

Runways

ID Width Length Bearing (true) Bearing (mag) Surface Threshold Offset Overrun Length
09 98 ft / 30 m 4,917 ft / 1,499 m 90.29° 90.98° Asphalt 0 ft / 0 m 246 ft / 75 m
27 98 ft / 30 m 4,917 ft / 1,499 m 270.30° 270.99° Asphalt 0 ft / 0 m 246 ft / 75 m

Map

Weather


0- 5 10 15 20 25 30 35+ Temperature / ° C

Clouds and Precipitation
Forecast for 2017-12-16 06:00 UTC. Updated 15 minutes ago

Ground ~20,000 ft ~40,000 ft Winds

METAR

Not found

TAF

TAF VTPT 152300Z 1600/1624 04005KT 8000 FEW030

Frequencies

Tower 118.80 MHz TWR
Approach 120.70 MHz APP
Warning: Do not use this data for real-world aviation or navigation. No guarantee of current accuracy is given.